createdAt,value
2018-03-22T00:00:54.154Z,19.35
2018-03-22T00:03:20.372Z,19.34
2018-03-22T00:05:46.876Z,19.36
2018-03-22T00:08:13.088Z,19.37
2018-03-22T00:10:39.258Z,19.38
2018-03-22T00:13:05.453Z,19.35
2018-03-22T00:15:31.626Z,19.35
2018-03-22T00:17:57.815Z,19.35
2018-03-22T00:20:24.038Z,19.32
2018-03-22T00:22:50.244Z,19.32
2018-03-22T00:25:16.451Z,19.30
2018-03-22T00:27:42.936Z,19.29
2018-03-22T00:30:09.156Z,19.28
2018-03-22T00:32:35.317Z,19.28
2018-03-22T00:35:01.517Z,19.27
2018-03-22T00:37:27.689Z,19.27
2018-03-22T00:39:54.182Z,19.23
2018-03-22T00:42:20.434Z,19.21
2018-03-22T00:44:46.655Z,19.20
2018-03-22T00:47:18.816Z,19.19
2018-03-22T00:49:45.017Z,19.20
2018-03-22T00:52:11.221Z,19.21
2018-03-22T00:54:37.797Z,19.22
2018-03-22T00:57:04.005Z,19.22
2018-03-22T00:59:30.211Z,19.22
2018-03-22T01:01:56.438Z,19.26
2018-03-22T01:04:28.765Z,19.24
2018-03-22T01:06:54.959Z,19.22
2018-03-22T01:11:52.930Z,19.17
2018-03-22T01:14:19.125Z,19.18
2018-03-22T01:16:45.293Z,19.19
2018-03-22T01:19:11.621Z,19.19
2018-03-22T01:21:37.825Z,19.15
2018-03-22T01:24:04.017Z,19.15
2018-03-22T01:26:30.433Z,19.15
2018-03-22T01:28:56.968Z,19.15
2018-03-22T01:31:23.150Z,19.16
2018-03-22T01:33:49.338Z,19.09
2018-03-22T01:36:15.542Z,19.10
2018-03-22T01:38:41.790Z,19.20
2018-03-22T01:41:07.990Z,19.21
2018-03-22T01:43:34.182Z,19.14
2018-03-22T01:46:00.666Z,19.11
2018-03-22T01:48:26.887Z,19.09
2018-03-22T01:50:53.066Z,19.07
2018-03-22T01:53:19.247Z,19.07
2018-03-22T01:55:45.427Z,19.11
2018-03-22T01:58:11.676Z,19.11
2018-03-22T02:00:37.897Z,19.11
2018-03-22T02:03:04.097Z,19.07
2018-03-22T02:05:30.293Z,19.07
2018-03-22T02:07:56.467Z,19.08
2018-03-22T02:10:22.662Z,19.10
2018-03-22T02:12:48.890Z,19.11
2018-03-22T02:15:15.083Z,19.08
2018-03-22T02:17:41.316Z,19.06
2018-03-22T02:20:07.524Z,19.04
2018-03-22T02:22:33.762Z,19.03
2018-03-22T02:25:00.217Z,19.04
2018-03-22T02:27:26.383Z,19.03
2018-03-22T02:29:52.606Z,19.01
2018-03-22T02:32:18.776Z,18.98
2018-03-22T02:34:44.982Z,18.99
2018-03-22T02:37:11.151Z,18.98
2018-03-22T02:39:37.577Z,18.98
2018-03-22T02:42:04.123Z,18.97
2018-03-22T02:44:30.341Z,18.96
2018-03-22T02:46:56.533Z,18.95
2018-03-22T02:49:22.969Z,18.97
2018-03-22T02:51:49.404Z,18.96
2018-03-22T02:54:15.585Z,18.94
2018-03-22T02:56:42.010Z,18.95
2018-03-22T02:59:08.292Z,18.98
2018-03-22T03:01:34.500Z,18.97
2018-03-22T03:04:00.690Z,18.95
2018-03-22T03:06:26.881Z,18.94
2018-03-22T03:08:53.118Z,18.96
2018-03-22T03:11:19.521Z,18.99
2018-03-22T03:13:45.685Z,18.99
2018-03-22T03:16:11.874Z,18.97
2018-03-22T03:18:38.182Z,18.97
2018-03-22T03:21:04.404Z,18.97
2018-03-22T03:23:30.592Z,18.95
2018-03-22T03:25:56.788Z,18.90
2018-03-22T03:28:23.257Z,18.92
2018-03-22T03:30:49.427Z,18.90
2018-03-22T03:33:15.621Z,18.90
2018-03-22T03:35:41.821Z,18.93
2018-03-22T03:38:08.395Z,18.90
2018-03-22T03:40:34.573Z,18.88
2018-03-22T03:43:00.768Z,18.85
2018-03-22T03:45:27.278Z,18.82
2018-03-22T03:47:53.474Z,18.82
2018-03-22T03:50:19.652Z,18.80
2018-03-22T03:52:45.864Z,18.76
2018-03-22T03:55:12.269Z,18.75
2018-03-22T03:57:38.506Z,18.78
2018-03-22T04:00:04.658Z,18.80
2018-03-22T04:02:30.852Z,18.80
2018-03-22T04:04:57.032Z,18.80
2018-03-22T04:07:23.185Z,18.79
2018-03-22T04:09:49.377Z,18.78
2018-03-22T04:12:15.782Z,18.79
2018-03-22T04:14:42.011Z,18.80
2018-03-22T04:17:08.196Z,18.85
2018-03-22T04:19:34.381Z,18.88
2018-03-22T04:22:00.644Z,18.87
2018-03-22T04:24:26.804Z,18.88
2018-03-22T04:26:53.077Z,18.95
2018-03-22T04:29:19.489Z,18.99
2018-03-22T04:31:45.671Z,18.94
2018-03-22T04:34:12.158Z,18.92
2018-03-22T04:36:38.337Z,18.92
2018-03-22T04:39:04.554Z,18.92
2018-03-22T04:41:31.036Z,18.91
2018-03-22T04:43:57.472Z,18.88
2018-03-22T04:46:23.683Z,18.84
2018-03-22T04:48:49.866Z,18.84
2018-03-22T04:51:16.051Z,18.83
2018-03-22T04:53:42.237Z,18.83
2018-03-22T04:56:08.418Z,18.84
2018-03-22T04:58:34.627Z,18.83
2018-03-22T05:01:01.076Z,18.83
2018-03-22T05:03:27.599Z,18.82
2018-03-22T05:05:53.768Z,18.80
2018-03-22T05:08:19.939Z,18.80
2018-03-22T05:10:46.237Z,18.79
2018-03-22T05:13:12.434Z,18.80
2018-03-22T05:15:38.643Z,18.81
2018-03-22T05:18:04.831Z,18.79
2018-03-22T05:20:31.008Z,18.78
2018-03-22T05:22:57.244Z,18.79
2018-03-22T05:25:23.417Z,18.78
2018-03-22T05:27:49.624Z,18.79
2018-03-22T05:30:16.118Z,18.80
2018-03-22T05:32:42.301Z,18.83
2018-03-22T05:35:08.541Z,18.83
2018-03-22T05:37:34.774Z,18.86
2018-03-22T05:40:00.952Z,18.90
2018-03-22T05:42:27.228Z,18.89
2018-03-22T05:44:53.438Z,18.89
2018-03-22T05:47:19.650Z,18.88
2018-03-22T05:49:45.833Z,18.87
2018-03-22T05:52:12.013Z,18.86
2018-03-22T05:54:38.147Z,18.87
2018-03-22T05:57:04.401Z,18.88
2018-03-22T05:59:30.570Z,18.86
2018-03-22T06:01:56.732Z,18.85
2018-03-22T06:04:22.940Z,18.91
2018-03-22T06:06:49.111Z,18.96
2018-03-22T06:09:15.371Z,18.95
2018-03-22T06:11:41.531Z,18.90
2018-03-22T06:14:07.931Z,18.88
2018-03-22T06:16:34.140Z,18.88
2018-03-22T06:19:00.330Z,18.87
2018-03-22T06:21:26.541Z,18.87
2018-03-22T06:23:52.740Z,18.87
2018-03-22T06:26:18.916Z,18.88
2018-03-22T06:28:45.083Z,18.87
2018-03-22T06:31:11.292Z,18.86
2018-03-22T06:33:37.483Z,18.88
2018-03-22T06:36:03.684Z,18.89
2018-03-22T06:38:29.849Z,18.90
2018-03-22T06:40:56.286Z,18.88
2018-03-22T06:43:22.462Z,18.89
2018-03-22T06:45:48.613Z,18.91
2018-03-22T06:48:14.818Z,18.93
2018-03-22T06:50:40.997Z,18.97
2018-03-22T06:53:07.229Z,18.94
2018-03-22T06:55:33.689Z,18.92
2018-03-22T06:57:59.845Z,18.92
2018-03-22T07:00:26.042Z,18.92
2018-03-22T07:02:52.200Z,18.94
2018-03-22T07:05:18.612Z,18.95
2018-03-22T07:07:44.832Z,18.96
2018-03-22T07:10:10.992Z,19.01
2018-03-22T07:12:37.180Z,19.01
2018-03-22T07:15:03.484Z,19.04
2018-03-22T07:17:29.662Z,19.00
2018-03-22T07:19:55.886Z,18.99
2018-03-22T07:22:22.072Z,18.95
2018-03-22T07:24:48.320Z,18.97
2018-03-22T07:27:14.865Z,19.00
2018-03-22T07:29:41.067Z,19.01
2018-03-22T07:32:07.273Z,19.03
2018-03-22T07:34:33.448Z,19.08
2018-03-22T07:36:59.664Z,19.00
2018-03-22T07:39:25.826Z,18.93
2018-03-22T07:41:52.089Z,18.94
2018-03-22T07:44:24.298Z,18.89
2018-03-22T07:46:50.451Z,18.89
2018-03-22T07:49:16.649Z,18.93
2018-03-22T07:51:42.844Z,18.89
2018-03-22T07:54:09.140Z,18.86
2018-03-22T07:56:35.637Z,18.85
2018-03-22T07:59:01.843Z,18.85
2018-03-22T08:01:28.061Z,18.86
2018-03-22T08:03:54.321Z,18.84
2018-03-22T08:06:20.506Z,18.87
2018-03-22T08:08:46.914Z,18.85
2018-03-22T08:11:13.118Z,18.84
2018-03-22T08:13:39.338Z,18.84
2018-03-22T08:16:05.617Z,18.83
2018-03-22T08:18:31.789Z,18.82
2018-03-22T08:20:58.031Z,18.81
2018-03-22T08:23:24.227Z,18.78
2018-03-22T08:25:50.399Z,18.78
2018-03-22T08:28:16.648Z,18.79
2018-03-22T08:30:42.791Z,18.78
2018-03-22T08:33:08.964Z,18.80
2018-03-22T08:35:35.136Z,18.79
2018-03-22T08:38:01.595Z,18.79
2018-03-22T08:40:27.764Z,18.78
2018-03-22T08:42:53.943Z,18.77
2018-03-22T08:45:20.142Z,18.82
2018-03-22T08:47:46.321Z,18.84
2018-03-22T08:50:12.514Z,18.85
2018-03-22T08:52:38.738Z,18.86
2018-03-22T08:55:04.957Z,18.86
2018-03-22T08:57:31.111Z,18.88
2018-03-22T08:59:57.576Z,18.88
2018-03-22T09:02:23.750Z,18.93
2018-03-22T09:04:49.930Z,18.96
2018-03-22T09:07:16.171Z,19.00
2018-03-22T09:09:42.375Z,19.02
2018-03-22T09:12:08.579Z,19.04
2018-03-22T09:14:34.812Z,19.05
2018-03-22T09:17:01.025Z,19.06
2018-03-22T09:19:27.240Z,19.06
2018-03-22T09:21:53.448Z,19.04
2018-03-22T09:24:19.651Z,19.04
2018-03-22T09:26:51.809Z,19.03
2018-03-22T09:29:18.095Z,19.03
2018-03-22T09:31:44.297Z,19.03
2018-03-22T09:34:10.504Z,19.01
2018-03-22T09:36:36.688Z,19.00
2018-03-22T09:39:02.995Z,19.03
2018-03-22T09:41:29.195Z,19.02
2018-03-22T09:43:55.375Z,19.03
2018-03-22T09:46:21.592Z,19.03
2018-03-22T09:48:47.737Z,19.03
2018-03-22T09:51:13.943Z,19.05
2018-03-22T09:53:40.137Z,19.09
2018-03-22T09:56:06.369Z,19.09
2018-03-22T09:58:32.575Z,19.13
2018-03-22T10:00:59.002Z,19.16
2018-03-22T10:03:25.165Z,19.17
2018-03-22T10:05:51.420Z,19.21
2018-03-22T10:08:17.607Z,19.26
2018-03-22T10:10:43.789Z,19.28
2018-03-22T10:13:09.958Z,19.27
2018-03-22T10:15:36.182Z,19.30
2018-03-22T10:18:02.608Z,19.30
2018-03-22T10:20:28.990Z,19.33
2018-03-22T10:22:55.186Z,19.35
2018-03-22T10:25:21.662Z,19.36
2018-03-22T10:27:47.840Z,19.37
2018-03-22T10:30:14.257Z,19.39
2018-03-22T10:32:40.448Z,19.39
2018-03-22T10:35:06.614Z,19.41
2018-03-22T10:37:32.840Z,19.45
2018-03-22T10:39:59.005Z,19.44
2018-03-22T10:42:25.161Z,19.44
2018-03-22T10:44:51.350Z,19.48
2018-03-22T10:47:17.958Z,19.50
2018-03-22T10:49:44.150Z,19.50
2018-03-22T10:52:10.623Z,19.55
2018-03-22T10:54:37.111Z,19.57
2018-03-22T10:57:03.289Z,19.55
2018-03-22T10:59:29.484Z,19.59
2018-03-22T11:01:59.676Z,19.64
2018-03-22T11:04:25.859Z,19.66
2018-03-22T11:06:52.152Z,19.68
2018-03-22T11:09:18.391Z,19.70
2018-03-22T11:11:44.555Z,19.78
2018-03-22T11:14:10.807Z,19.84
2018-03-22T11:16:37.034Z,19.91
2018-03-22T11:19:03.324Z,19.94
2018-03-22T11:21:29.509Z,20.02
2018-03-22T11:23:55.818Z,20.03
2018-03-22T11:26:22.009Z,19.99
2018-03-22T11:28:48.446Z,19.99
2018-03-22T11:31:14.980Z,20.02
2018-03-22T11:33:41.325Z,20.06
2018-03-22T11:36:07.512Z,20.10
2018-03-22T11:38:33.723Z,20.14
2018-03-22T11:40:59.911Z,20.14
2018-03-22T11:43:26.120Z,20.09
2018-03-22T11:45:52.339Z,20.06
2018-03-22T11:48:18.521Z,20.05
2018-03-22T11:50:44.811Z,20.02
2018-03-22T11:53:10.977Z,20.01
2018-03-22T11:55:37.155Z,20.02
2018-03-22T11:58:03.345Z,19.97
2018-03-22T12:00:29.546Z,19.94
2018-03-22T12:02:55.752Z,19.92
2018-03-22T12:05:21.942Z,19.91
2018-03-22T12:07:48.123Z,19.92
2018-03-22T12:10:14.349Z,19.93
2018-03-22T12:12:40.524Z,19.92
2018-03-22T12:15:07.658Z,19.88
2018-03-22T12:17:33.806Z,19.87
2018-03-22T12:19:59.951Z,19.90
2018-03-22T12:22:26.132Z,19.89
2018-03-22T12:24:52.334Z,19.85
2018-03-22T12:27:18.587Z,19.84
2018-03-22T12:29:44.764Z,19.81
2018-03-22T12:32:10.907Z,19.79
2018-03-22T12:34:37.125Z,19.79
2018-03-22T12:37:03.545Z,19.79
2018-03-22T12:39:29.734Z,19.78
2018-03-22T12:41:55.988Z,19.80
2018-03-22T12:44:22.542Z,19.81
2018-03-22T12:46:48.713Z,19.82
2018-03-22T12:49:14.879Z,19.85
2018-03-22T12:51:41.105Z,19.85
2018-03-22T12:54:07.293Z,19.84
2018-03-22T12:56:33.463Z,19.85
2018-03-22T12:58:59.656Z,19.82
2018-03-22T13:01:25.848Z,19.81
2018-03-22T13:03:52.084Z,19.82
2018-03-22T13:06:18.278Z,19.81
2018-03-22T13:08:44.449Z,19.78
2018-03-22T13:11:10.692Z,19.79
2018-03-22T13:13:36.857Z,19.80
2018-03-22T13:16:03.018Z,19.91
2018-03-22T13:18:29.548Z,19.97
2018-03-22T13:20:55.740Z,19.92
2018-03-22T13:23:22.194Z,19.93
2018-03-22T13:25:48.460Z,19.89
2018-03-22T13:28:14.639Z,19.86
2018-03-22T13:30:40.796Z,19.87
2018-03-22T13:33:07.106Z,19.91
2018-03-22T13:35:33.266Z,19.89
2018-03-22T13:37:59.434Z,19.80
2018-03-22T13:40:25.753Z,19.76
2018-03-22T13:42:51.956Z,19.74
2018-03-22T13:45:18.121Z,19.72
2018-03-22T13:47:44.783Z,19.76
2018-03-22T13:50:11.214Z,19.72
2018-03-22T13:52:37.644Z,19.78
2018-03-22T13:55:03.851Z,19.81
2018-03-22T13:57:30.004Z,19.84
2018-03-22T13:59:56.215Z,19.84
2018-03-22T14:02:22.372Z,19.82
2018-03-22T14:04:48.888Z,19.77
2018-03-22T14:07:15.060Z,19.78
2018-03-22T14:09:41.260Z,19.78
2018-03-22T14:12:07.472Z,19.77
2018-03-22T14:14:33.646Z,19.75
2018-03-22T14:16:59.874Z,19.73
2018-03-22T14:19:26.045Z,19.75
2018-03-22T14:21:52.229Z,19.73
2018-03-22T14:24:18.450Z,19.74
2018-03-22T14:26:44.639Z,19.75
2018-03-22T14:29:11.171Z,19.72
2018-03-22T14:31:37.346Z,19.69
2018-03-22T14:34:03.556Z,19.68
2018-03-22T14:36:29.730Z,19.69
2018-03-22T14:38:55.892Z,19.70
2018-03-22T14:41:22.098Z,19.68
2018-03-22T14:43:48.285Z,19.70
2018-03-22T14:46:14.512Z,19.71
2018-03-22T14:48:40.687Z,19.69
2018-03-22T14:51:06.869Z,19.65
2018-03-22T14:53:33.120Z,19.62
2018-03-22T14:55:59.355Z,19.61
2018-03-22T14:58:25.573Z,19.59
2018-03-22T15:00:51.743Z,19.59
2018-03-22T15:05:50.018Z,19.56
2018-03-22T15:08:16.197Z,19.54
2018-03-22T15:10:42.411Z,19.53
2018-03-22T15:13:08.572Z,19.54
2018-03-22T15:15:34.783Z,19.55
2018-03-22T15:18:01.264Z,19.55
2018-03-22T15:20:27.794Z,19.55
2018-03-22T15:22:53.962Z,19.57
2018-03-22T15:25:20.265Z,19.57
2018-03-22T15:27:46.441Z,19.57
2018-03-22T15:30:12.601Z,19.56
2018-03-22T15:32:38.816Z,19.55
2018-03-22T15:35:05.005Z,19.54
2018-03-22T15:37:31.252Z,19.55
2018-03-22T15:39:57.454Z,19.55
2018-03-22T15:42:23.624Z,19.52
2018-03-22T15:44:49.802Z,19.51
2018-03-22T15:47:23.010Z,19.51
2018-03-22T15:49:49.211Z,19.48
2018-03-22T15:52:15.397Z,19.47
2018-03-22T15:54:41.595Z,19.47
2018-03-22T15:57:08.088Z,19.47
2018-03-22T15:59:34.613Z,19.47
2018-03-22T16:02:00.796Z,19.46
2018-03-22T16:04:27.381Z,19.45
2018-03-22T16:06:53.559Z,19.45
2018-03-22T16:09:20.038Z,19.43
2018-03-22T16:11:46.579Z,19.42
2018-03-22T16:14:12.786Z,19.42
2018-03-22T16:16:39.027Z,19.44
2018-03-22T16:19:05.184Z,19.43
2018-03-22T16:21:31.400Z,19.43
2018-03-22T16:23:57.611Z,19.42
2018-03-22T16:26:23.923Z,19.40
2018-03-22T16:28:50.092Z,19.40
2018-03-22T16:31:16.294Z,19.37
2018-03-22T16:33:42.504Z,19.37
2018-03-22T16:36:08.671Z,19.35
2018-03-22T16:38:34.861Z,19.34
2018-03-22T16:41:01.311Z,19.33
2018-03-22T16:43:27.538Z,19.32
2018-03-22T16:45:53.709Z,19.32
2018-03-22T16:48:19.888Z,19.32
2018-03-22T16:50:46.096Z,19.31
2018-03-22T16:53:12.281Z,19.31
2018-03-22T16:55:38.786Z,19.31
2018-03-22T16:58:04.963Z,19.31
2018-03-22T17:00:31.135Z,19.31
2018-03-22T17:02:57.363Z,19.32
2018-03-22T17:05:23.574Z,19.31
2018-03-22T17:07:49.833Z,19.30
2018-03-22T17:10:16.047Z,19.31
2018-03-22T17:12:42.232Z,19.30
2018-03-22T17:15:08.384Z,19.29
2018-03-22T17:17:34.833Z,19.29
2018-03-22T17:20:00.985Z,19.28
2018-03-22T17:22:27.554Z,19.27
2018-03-22T17:24:53.678Z,19.27
2018-03-22T17:27:19.943Z,19.28
2018-03-22T17:29:46.150Z,19.29
2018-03-22T17:32:12.610Z,19.28
2018-03-22T17:34:38.798Z,19.26
2018-03-22T17:37:04.963Z,19.24
2018-03-22T17:39:31.182Z,19.23
2018-03-22T17:41:57.367Z,19.23
2018-03-22T17:44:23.534Z,19.21
2018-03-22T17:46:49.980Z,19.21
2018-03-22T17:49:16.518Z,19.20
2018-03-22T17:51:43.052Z,19.22
2018-03-22T17:54:09.250Z,19.23
2018-03-22T17:56:35.468Z,19.23
2018-03-22T17:59:01.654Z,19.27
2018-03-22T18:01:27.890Z,19.30
2018-03-22T18:03:54.160Z,19.32
2018-03-22T18:06:20.562Z,19.33
2018-03-22T18:08:47.184Z,19.35
2018-03-22T18:11:13.393Z,19.36
2018-03-22T18:13:39.712Z,19.35
2018-03-22T18:16:06.005Z,19.32
2018-03-22T18:18:32.607Z,19.30
2018-03-22T18:20:58.870Z,19.29
2018-03-22T18:23:25.075Z,19.30
2018-03-22T18:25:51.370Z,19.30
2018-03-22T18:28:17.577Z,19.29
2018-03-22T18:30:43.844Z,19.27
2018-03-22T18:33:10.112Z,19.23
2018-03-22T18:35:36.429Z,19.20
2018-03-22T18:38:02.676Z,19.23
2018-03-22T18:40:28.967Z,19.23
2018-03-22T18:42:55.152Z,19.26
2018-03-22T18:45:21.790Z,19.30
2018-03-22T18:47:47.994Z,19.30
2018-03-22T18:50:14.587Z,19.34
2018-03-22T18:52:40.829Z,19.34
2018-03-22T18:55:07.465Z,19.33
2018-03-22T18:57:33.731Z,19.32
2018-03-22T19:00:00.041Z,19.35
2018-03-22T19:02:26.281Z,19.33
2018-03-22T19:04:52.505Z,19.31
2018-03-22T19:07:18.873Z,19.31
2018-03-22T19:09:45.450Z,19.31
2018-03-22T19:12:11.980Z,19.30
2018-03-22T19:14:38.285Z,19.30
2018-03-22T19:17:04.519Z,19.29
2018-03-22T19:19:30.741Z,19.31
2018-03-22T19:21:56.999Z,19.31
2018-03-22T19:24:23.702Z,19.30
2018-03-22T19:26:50.032Z,19.28
2018-03-22T19:29:16.593Z,19.28
2018-03-22T19:31:42.938Z,19.28
2018-03-22T19:34:09.130Z,19.26
2018-03-22T19:36:35.391Z,19.29
2018-03-22T19:39:01.580Z,19.32
2018-03-22T19:41:31.139Z,19.28
2018-03-22T19:43:57.568Z,19.31
2018-03-22T19:46:24.006Z,19.32
2018-03-22T19:48:50.252Z,19.32
2018-03-22T19:51:16.490Z,19.32
2018-03-22T19:53:42.751Z,19.31
2018-03-22T19:56:08.959Z,19.31
2018-03-22T19:58:35.248Z,19.33
2018-03-22T20:01:01.494Z,19.32
2018-03-22T20:03:27.677Z,19.31
2018-03-22T20:05:54.224Z,19.33
2018-03-22T20:08:20.456Z,19.34
2018-03-22T20:10:47.067Z,19.36
2018-03-22T20:13:13.269Z,19.36
2018-03-22T20:15:39.858Z,19.37
2018-03-22T20:18:06.383Z,19.36
2018-03-22T20:20:32.832Z,19.40
2018-03-22T20:22:59.025Z,19.41
2018-03-22T20:25:25.548Z,19.41
2018-03-22T20:27:51.755Z,19.40
2018-03-22T20:30:17.972Z,19.41
2018-03-22T20:32:44.536Z,19.41
2018-03-22T20:35:11.073Z,19.43
2018-03-22T20:37:37.247Z,19.41
2018-03-22T20:40:03.452Z,19.42
2018-03-22T20:42:29.631Z,19.42
2018-03-22T20:44:55.846Z,19.40
2018-03-22T20:47:22.036Z,19.40
2018-03-22T20:49:48.282Z,19.31
2018-03-22T20:52:14.455Z,19.39
2018-03-22T20:54:40.649Z,19.40
2018-03-22T20:57:06.870Z,19.40
2018-03-22T20:59:33.072Z,19.40
2018-03-22T21:01:59.579Z,19.39
2018-03-22T21:04:25.759Z,19.41
2018-03-22T21:06:52.243Z,19.40
2018-03-22T21:09:18.454Z,19.39
2018-03-22T21:11:44.664Z,19.39
2018-03-22T21:14:10.870Z,19.40
2018-03-22T21:16:37.080Z,19.39
2018-03-22T21:19:03.593Z,19.38
2018-03-22T21:21:29.777Z,19.38
2018-03-22T21:23:56.657Z,19.37
2018-03-22T21:26:22.829Z,19.36
2018-03-22T21:28:54.968Z,19.35
2018-03-22T21:31:21.268Z,19.33
2018-03-22T21:33:47.482Z,19.31
2018-03-22T21:36:13.687Z,19.30
2018-03-22T21:38:39.899Z,19.30
2018-03-22T21:41:06.117Z,19.29
2018-03-22T21:43:32.319Z,19.29
2018-03-22T21:45:58.495Z,19.29
2018-03-22T21:48:24.716Z,19.28
2018-03-22T21:50:51.063Z,19.28
2018-03-22T21:53:17.258Z,19.25
2018-03-22T21:55:43.465Z,19.27
2018-03-22T21:58:09.690Z,19.28
2018-03-22T22:00:35.899Z,19.27
2018-03-22T22:03:02.086Z,19.26
2018-03-22T22:05:28.346Z,19.26
2018-03-22T22:07:54.516Z,19.28
2018-03-22T22:10:20.702Z,19.28
2018-03-22T22:12:46.940Z,19.29
2018-03-22T22:15:13.107Z,19.30
2018-03-22T22:17:39.313Z,19.30
2018-03-22T22:20:05.844Z,19.31
2018-03-22T22:22:32.034Z,19.33
2018-03-22T22:24:58.254Z,19.33
2018-03-22T22:27:24.426Z,19.35
2018-03-22T22:29:50.860Z,19.34
2018-03-22T22:32:17.077Z,19.33
2018-03-22T22:34:43.259Z,19.34
2018-03-22T22:37:09.808Z,19.32
2018-03-22T22:39:35.979Z,19.32
2018-03-22T22:42:02.159Z,19.32
2018-03-22T22:44:28.649Z,19.34
2018-03-22T22:46:54.854Z,19.34
2018-03-22T22:49:21.063Z,19.31
2018-03-22T22:51:47.247Z,19.31
2018-03-22T22:54:13.446Z,19.31
2018-03-22T22:56:40.081Z,19.32
2018-03-22T22:59:06.242Z,19.30
2018-03-22T23:01:32.522Z,19.29
2018-03-22T23:03:58.715Z,19.30
2018-03-22T23:06:24.903Z,19.32
2018-03-22T23:08:51.141Z,19.32
2018-03-22T23:11:17.314Z,19.28
2018-03-22T23:13:43.519Z,19.33
2018-03-22T23:16:09.736Z,19.36
2018-03-22T23:18:35.932Z,19.37
2018-03-22T23:21:02.152Z,19.37
2018-03-22T23:23:28.373Z,19.36
2018-03-22T23:25:54.618Z,19.31
2018-03-22T23:28:20.818Z,19.36
2018-03-22T23:30:47.132Z,19.39
2018-03-22T23:33:13.330Z,19.40
2018-03-22T23:35:39.571Z,19.37
2018-03-22T23:38:05.758Z,19.36
2018-03-22T23:40:31.996Z,19.36
2018-03-22T23:42:58.169Z,19.34
2018-03-22T23:45:24.651Z,19.32
2018-03-22T23:47:50.895Z,19.32
2018-03-22T23:50:17.084Z,19.32
2018-03-22T23:52:43.268Z,19.31
2018-03-22T23:55:09.484Z,19.26
2018-03-22T23:57:35.681Z,19.26
